Time;durP1;ratioP1;P1;durP2;ratioP2;P2;SDS_P1;SDS_P2;PMS_P1;PMS_P2;Temp;Humidity;BMP_temperature;BMP_pressure;BME280_temperature;BME280_humidity;BME280_pressure;Samples;Min_cycle;Max_cycle;Signal;HPM_P1;HPM_P2
2021/04/01 00:01:57;;;;;;;7.27;5.70;;;;;;;;;;5072668;28;20513;-71
2021/04/01 00:04:23;;;;;;;8.57;6.83;;;;;;;;;;5068945;28;20450;-70
2021/04/01 00:06:49;;;;;;;6.90;5.03;;;;;;;;;;5058083;28;20406;-71
2021/04/01 00:09:15;;;;;;;7.73;4.57;;;;;;;;;;5068182;28;20462;-71
2021/04/01 00:11:41;;;;;;;26.63;5.83;;;;;;;;;;5052096;28;20426;-71
2021/04/01 00:14:07;;;;;;;8.23;4.23;;;;;;;;;;5052900;28;20454;-70
2021/04/01 00:16:33;;;;;;;6.03;5.10;;;;;;;;;;5072173;28;20434;-70
2021/04/01 00:19:00;;;;;;;7.53;3.83;;;;;;;;;;5071684;28;20489;-70
2021/04/01 00:21:26;;;;;;;12.80;6.47;;;;;;;;;;5071549;28;20935;-69
2021/04/01 00:23:52;;;;;;;8.00;5.80;;;;;;;;;;5072221;28;20406;-71
2021/04/01 00:26:18;;;;;;;12.13;5.17;;;;;;;;;;5070695;28;20417;-71
2021/04/01 00:28:44;;;;;;;36.67;34.73;;;;;;;;;;5071943;28;20500;-71
2021/04/01 00:31:10;;;;;;;127.50;121.93;;;;;;;;;;5052642;28;20434;-71
2021/04/01 00:33:36;;;;;;;434.40;386.47;;;;;;;;;;5051713;28;20415;-71
2021/04/01 00:36:02;;;;;;;413.17;292.53;;;;;;;;;;5067690;28;20410;-71
2021/04/01 00:38:28;;;;;;;267.10;184.33;;;;;;;;;;5078408;28;20454;-69
2021/04/01 00:40:54;;;;;;;441.97;357.67;;;;;;;;;;5073014;28;20429;-70
2021/04/01 00:43:20;;;;;;;567.00;471.60;;;;;;;;;;5052411;28;20429;-71
2021/04/01 00:45:46;;;;;;;592.70;437.83;;;;;;;;;;5064748;28;20403;-71
2021/04/01 00:48:12;;;;;;;142.30;127.27;;;;;;;;;;5070997;28;20457;-70
2021/04/01 00:50:38;;;;;;;277.03;251.53;;;;;;;;;;5070949;28;20535;-70
2021/04/01 00:53:04;;;;;;;401.47;309.97;;;;;;;;;;5061151;28;20438;-70
2021/04/01 00:55:30;;;;;;;470.03;327.77;;;;;;;;;;5062512;28;20417;-71
2021/04/01 00:57:57;;;;;;;550.17;365.03;;;;;;;;;;5071519;28;20405;-69
2021/04/01 01:00:26;;;;;;;375.70;323.27;;;;;;;;;;5052892;28;20876;-71
2021/04/01 01:02:53;;;;;;;413.60;373.67;;;;;;;;;;5073837;28;20398;-69
2021/04/01 01:05:20;;;;;;;521.37;362.90;;;;;;;;;;5070647;28;20433;-70
2021/04/01 01:07:45;;;;;;;448.57;308.17;;;;;;;;;;5071144;28;20536;-70
2021/04/01 01:10:23;;;;;;;426.90;285.50;;;;;;;;;;5070386;28;20504;-70
2021/04/01 01:12:49;;;;;;;529.60;318.03;;;;;;;;;;5071079;28;20437;-71
2021/04/01 01:15:15;;;;;;;26.43;24.30;;;;;;;;;;5061461;28;20421;-71
2021/04/01 01:17:41;;;;;;;4.47;4.07;;;;;;;;;;5080846;28;20433;-69
2021/04/01 01:20:09;;;;;;;3.73;3.10;;;;;;;;;;5079386;28;20440;-69
2021/04/01 01:22:36;;;;;;;4.83;1.80;;;;;;;;;;5080500;28;20459;-70
2021/04/01 01:25:05;;;;;;;2.53;2.20;;;;;;;;;;5079543;28;20413;-71
2021/04/01 01:27:31;;;;;;;6.70;4.07;;;;;;;;;;5081724;28;20399;-70
2021/04/01 01:29:57;;;;;;;3.07;2.77;;;;;;;;;;5078745;28;20468;-69
2021/04/01 01:32:23;;;;;;;5.97;2.00;;;;;;;;;;5080657;28;20443;-71
2021/04/01 01:34:48;;;;;;;2.60;2.40;;;;;;;;;;5080895;28;20805;-70
2021/04/01 01:37:15;;;;;;;8.80;3.83;;;;;;;;;;5056928;28;20419;-72
2021/04/01 01:39:41;;;;;;;4.97;2.90;;;;;;;;;;5036361;28;20508;-68
2021/04/01 01:42:07;;;;;;;10.70;4.10;;;;;;;;;;5082935;28;20429;-70
2021/04/01 01:44:33;;;;;;;5.37;3.47;;;;;;;;;;5054997;28;20454;-70
2021/04/01 01:47:00;;;;;;;18.47;3.07;;;;;;;;;;5064233;28;20777;-70
2021/04/01 01:49:26;;;;;;;5.03;4.13;;;;;;;;;;5058136;28;20462;-71
2021/04/01 01:51:52;;;;;;;9.80;4.70;;;;;;;;;;5050576;28;20469;-68
2021/04/01 01:54:18;;;;;;;5.20;2.93;;;;;;;;;;5060031;28;20474;-70
2021/04/01 01:56:44;;;;;;;3.13;2.77;;;;;;;;;;5050942;28;20457;-70
2021/04/01 01:59:11;;;;;;;9.03;5.47;;;;;;;;;;5050678;28;20492;-70
2021/04/01 02:01:37;;;;;;;3.63;3.10;;;;;;;;;;5051192;28;20450;-70
2021/04/01 02:04:03;;;;;;;6.60;5.40;;;;;;;;;;5070629;28;20491;-71
2021/04/01 02:06:30;;;;;;;9.90;4.40;;;;;;;;;;5054586;28;20814;-71
2021/04/01 02:08:57;;;;;;;6.67;3.33;;;;;;;;;;5070400;28;20830;-71
2021/04/01 02:11:23;;;;;;;4.33;2.90;;;;;;;;;;5052195;28;20946;-71
2021/04/01 02:13:49;;;;;;;10.00;5.50;;;;;;;;;;5049958;28;20406;-71
2021/04/01 02:16:15;;;;;;;5.53;3.20;;;;;;;;;;5068680;28;20410;-73
2021/04/01 02:18:41;;;;;;;10.70;2.60;;;;;;;;;;5070519;28;20424;-71
2021/04/01 02:21:09;;;;;;;5.73;4.50;;;;;;;;;;5070028;28;20495;-70
2021/04/01 02:23:35;;;;;;;7.00;5.00;;;;;;;;;;5070517;28;20741;-70
2021/04/01 02:26:02;;;;;;;3.03;2.30;;;;;;;;;;5070013;28;20414;-71
2021/04/01 02:28:29;;;;;;;4.37;2.43;;;;;;;;;;5070632;28;20420;-70
2021/04/01 02:31:02;;;;;;;7.30;3.00;;;;;;;;;;5070322;28;20419;-71
2021/04/01 02:33:30;;;;;;;5.30;3.10;;;;;;;;;;5070505;28;20394;-71
2021/04/01 02:35:57;;;;;;;19.43;3.47;;;;;;;;;;5054575;28;20497;-69
2021/04/01 02:38:23;;;;;;;8.53;4.23;;;;;;;;;;5050454;28;20432;-71
2021/04/01 02:40:49;;;;;;;11.50;5.07;;;;;;;;;;5060559;28;20473;-71
2021/04/01 02:43:22;;;;;;;4.00;3.60;;;;;;;;;;5069728;28;20576;-71
2021/04/01 02:45:48;;;;;;;5.13;3.37;;;;;;;;;;5069225;28;20418;-71
2021/04/01 02:48:14;;;;;;;8.80;7.90;;;;;;;;;;5070745;28;20516;-70
2021/04/01 02:50:40;;;;;;;11.53;5.23;;;;;;;;;;5079964;22;20493;-71
2021/04/01 02:53:06;;;;;;;6.60;5.40;;;;;;;;;;5086207;28;20432;-70
2021/04/01 02:55:32;;;;;;;275.97;258.27;;;;;;;;;;5075783;28;20412;-70
2021/04/01 02:57:57;;;;;;;12.63;4.97;;;;;;;;;;5094327;28;20806;-71
2021/04/01 03:00:27;;;;;;;3.97;3.30;;;;;;;;;;5093884;28;20441;-70
2021/04/01 03:02:57;;;;;;;4.17;2.97;;;;;;;;;;5073957;28;20477;-69
2021/04/01 03:05:23;;;;;;;7.50;5.70;;;;;;;;;;5073368;28;20981;-70
2021/04/01 03:07:49;;;;;;;13.80;8.27;;;;;;;;;;5064273;28;20536;-72
2021/04/01 03:10:15;;;;;;;7.93;3.33;;;;;;;;;;5073692;28;20420;-68
2021/04/01 03:12:41;;;;;;;2.53;2.30;;;;;;;;;;5073484;28;20495;-70
2021/04/01 03:15:09;;;;;;;6.93;2.23;;;;;;;;;;5073672;28;20420;-71
2021/04/01 03:17:35;;;;;;;7.63;3.77;;;;;;;;;;5073882;28;20399;-71
2021/04/01 03:20:02;;;;;;;7.40;4.23;;;;;;;;;;5073687;28;20425;-71
2021/04/01 03:22:28;;;;;;;13.03;12.10;;;;;;;;;;5073699;28;20421;-71
2021/04/01 03:24:54;;;;;;;17.30;4.30;;;;;;;;;;5055573;28;20917;-71
2021/04/01 03:27:20;;;;;;;2.50;2.30;;;;;;;;;;5073742;28;20457;-71
2021/04/01 03:30:03;;;;;;;9.47;8.33;;;;;;;;;;5073421;28;20487;-71
2021/04/01 03:32:29;;;;;;;4.07;2.50;;;;;;;;;;5072937;28;20517;-71
2021/04/01 03:34:55;;;;;;;3.93;3.23;;;;;;;;;;5073534;28;20402;-71
2021/04/01 03:37:21;;;;;;;8.57;3.57;;;;;;;;;;5071958;28;20414;-71
2021/04/01 03:39:47;;;;;;;2.50;2.37;;;;;;;;;;5073283;28;20433;-71
2021/04/01 03:42:13;;;;;;;7.47;3.90;;;;;;;;;;5072744;28;20502;-70
2021/04/01 03:44:39;;;;;;;2.40;2.20;;;;;;;;;;5073319;28;20402;-71
2021/04/01 03:47:05;;;;;;;3.97;3.67;;;;;;;;;;5073361;28;20402;-71
2021/04/01 03:49:31;;;;;;;6.30;2.80;;;;;;;;;;5073126;28;20461;-71
2021/04/01 03:51:57;;;;;;;6.80;6.20;;;;;;;;;;5071657;28;20481;-71
2021/04/01 03:54:23;;;;;;;8.60;2.70;;;;;;;;;;5067138;28;20426;-70
2021/04/01 03:56:49;;;;;;;16.37;15.40;;;;;;;;;;5073410;28;20402;-70
2021/04/01 03:59:18;;;;;;;3.80;3.60;;;;;;;;;;5072398;28;20412;-70
2021/04/01 04:14:41;;;;;;;6.30;3.20;;;;;;;;;;5060372;28;20447;-71
2021/04/01 04:17:07;;;;;;;5.83;4.87;;;;;;;;;;5064246;28;20395;-70
2021/04/01 04:19:33;;;;;;;10.60;4.73;;;;;;;;;;5072276;28;20404;-70
2021/04/01 04:21:59;;;;;;;3.60;3.17;;;;;;;;;;5063370;28;20917;-70
2021/04/01 04:24:25;;;;;;;6.83;6.23;;;;;;;;;;5072458;28;20927;-70
2021/04/01 04:26:51;;;;;;;4.83;3.90;;;;;;;;;;5069653;28;20443;-71
2021/04/01 04:29:18;;;;;;;20.90;18.93;;;;;;;;;;5064916;28;20821;-71
2021/04/01 04:31:44;;;;;;;5.33;2.40;;;;;;;;;;5069378;28;21131;-71
2021/04/01 04:34:10;;;;;;;5.60;5.20;;;;;;;;;;5066022;28;20404;-71
2021/04/01 04:36:36;;;;;;;8.53;5.00;;;;;;;;;;5063045;28;20395;-72
2021/04/01 04:39:02;;;;;;;4.90;3.37;;;;;;;;;;5070435;28;20398;-72
2021/04/01 04:41:28;;;;;;;10.67;3.57;;;;;;;;;;5053826;28;20430;-72
2021/04/01 04:43:54;;;;;;;5.57;3.47;;;;;;;;;;5071720;28;20496;-69
2021/04/01 04:46:20;;;;;;;3.60;3.30;;;;;;;;;;5072099;28;20466;-71
2021/04/01 04:48:47;;;;;;;17.20;15.50;;;;;;;;;;5072101;28;20450;-71
2021/04/01 04:51:13;;;;;;;4.07;2.40;;;;;;;;;;5071562;28;20973;-71
2021/04/01 04:53:39;;;;;;;8.60;5.20;;;;;;;;;;5065797;28;20419;-71
2021/04/01 04:56:14;;;;;;;13.63;4.03;;;;;;;;;;5064476;28;20446;-71
2021/04/01 04:58:48;;;;;;;4.53;2.87;;;;;;;;;;5071108;28;20393;-72
2021/04/01 05:04:39;;;;;;;9.90;4.17;;;;;;;;;;5053813;28;20915;-72
2021/04/01 05:06:54;;;;;;;5.03;2.23;;;;;;;;;;5051019;28;20406;-72
2021/04/01 05:09:20;;;;;;;4.97;4.47;;;;;;;;;;5062477;28;20523;-71
2021/04/01 05:11:48;;;;;;;24.63;2.80;;;;;;;;;;5062549;28;20438;-69
2021/04/01 05:14:16;;;;;;;12.60;6.20;;;;;;;;;;5062884;28;20389;-70
2021/04/01 05:16:42;;;;;;;8.53;7.60;;;;;;;;;;5068237;28;20409;-71
2021/04/01 05:19:10;;;;;;;5.20;3.07;;;;;;;;;;5055426;28;20440;-71
2021/04/01 05:24:06;;;;;;;18.33;6.17;;;;;;;;;;5063322;28;20510;-70
2021/04/01 05:29:10;;;;;;;9.83;6.30;;;;;;;;;;5057256;28;20463;-70
2021/04/01 05:31:37;;;;;;;5.43;3.20;;;;;;;;;;5063823;28;21027;-69
2021/04/01 05:34:03;;;;;;;3.97;3.17;;;;;;;;;;5064588;28;20410;-70
2021/04/01 05:36:32;;;;;;;3.87;3.57;;;;;;;;;;5066230;28;20482;-70
2021/04/01 05:38:59;;;;;;;13.10;5.17;;;;;;;;;;5067510;28;20786;-70
2021/04/01 05:41:27;;;;;;;15.40;5.33;;;;;;;;;;5052160;28;20436;-70
2021/04/01 05:46:49;;;;;;;14.00;5.40;;;;;;;;;;5053868;28;20530;-70
2021/04/01 05:49:39;;;;;;;7.70;5.13;;;;;;;;;;5063483;28;20493;-70
2021/04/01 06:03:21;;;;;;;18.83;2.70;;;;;;;;;;5069892;28;20413;-71
2021/04/01 06:05:49;;;;;;;6.93;2.57;;;;;;;;;;5039071;28;20414;-71
2021/04/01 06:08:23;;;;;;;8.70;5.13;;;;;;;;;;5065945;28;20489;-71
2021/04/01 06:10:50;;;;;;;5.20;4.10;;;;;;;;;;5061737;28;20516;-71
2021/04/01 06:13:17;;;;;;;7.80;5.00;;;;;;;;;;5062064;28;20982;-70
2021/04/01 06:15:47;;;;;;;7.73;5.13;;;;;;;;;;5070828;28;20455;-71
2021/04/01 06:18:14;;;;;;;3.90;3.60;;;;;;;;;;5059733;28;20418;-69
2021/04/01 06:20:41;;;;;;;3.90;2.57;;;;;;;;;;5065924;28;20418;-71
2021/04/01 06:23:07;;;;;;;8.53;5.60;;;;;;;;;;5064846;28;20410;-71
2021/04/01 06:25:37;;;;;;;8.87;4.77;;;;;;;;;;5065445;28;20475;-71
2021/04/01 06:28:07;;;;;;;4.30;3.47;;;;;;;;;;5069710;28;20459;-71
2021/04/01 06:30:45;;;;;;;7.13;5.20;;;;;;;;;;5073881;28;20499;-72
2021/04/01 06:33:13;;;;;;;8.40;4.20;;;;;;;;;;5073637;28;20513;-71
2021/04/01 06:35:48;;;;;;;4.10;2.73;;;;;;;;;;5068183;28;20414;-70
2021/04/01 06:40:44;;;;;;;15.40;4.63;;;;;;;;;;5058345;28;20413;-71
2021/04/01 06:43:21;;;;;;;2.77;2.53;;;;;;;;;;5072251;28;20956;-71
2021/04/01 06:45:57;;;;;;;7.03;5.97;;;;;;;;;;5065365;28;20424;-69
2021/04/01 06:48:26;;;;;;;17.23;7.97;;;;;;;;;;5064720;28;20477;-71
2021/04/01 06:51:04;;;;;;;7.60;5.73;;;;;;;;;;5064357;28;20453;-71
2021/04/01 06:53:48;;;;;;;2.93;2.73;;;;;;;;;;5066957;28;20497;-71
2021/04/01 06:56:24;;;;;;;2.43;2.23;;;;;;;;;;5069238;28;20414;-70
2021/04/01 07:02:11;;;;;;;4.60;3.13;;;;;;;;;;5064451;28;20434;-70
2021/04/01 07:04:36;;;;;;;7.23;4.17;;;;;;;;;;5061129;28;22596;-70
2021/04/01 07:07:07;;;;;;;11.33;5.13;;;;;;;;;;5064943;28;20500;-71
2021/04/01 07:09:55;;;;;;;9.70;2.80;;;;;;;;;;5070749;28;20927;-71
2021/04/01 07:12:29;;;;;;;328.03;243.90;;;;;;;;;;5064697;28;20433;-70
2021/04/01 07:14:57;;;;;;;5.63;4.20;;;;;;;;;;5066246;28;20905;-70
2021/04/01 07:17:28;;;;;;;18.40;7.47;;;;;;;;;;5073140;28;20433;-71
2021/04/01 07:20:21;;;;;;;181.97;170.17;;;;;;;;;;5073409;28;20907;-70
2021/04/01 07:23:19;;;;;;;118.77;112.70;;;;;;;;;;5060545;28;20486;-70
2021/04/01 07:47:47;;;;;;;7.80;5.63;;;;;;;;;;5064734;28;20464;-71
2021/04/01 07:50:25;;;;;;;5.13;3.37;;;;;;;;;;5071460;28;20425;-71
2021/04/01 07:52:57;;;;;;;5.07;4.63;;;;;;;;;;5071396;28;20443;-70
2021/04/01 08:05:56;;;;;;;8.47;5.53;;;;;;;;;;5069352;28;20794;-70
2021/04/01 08:08:22;;;;;;;10.60;9.47;;;;;;;;;;5066317;28;20453;-70
2021/04/01 08:10:50;;;;;;;9.60;8.57;;;;;;;;;;5060520;28;20425;-71
2021/04/01 08:13:19;;;;;;;49.63;46.30;;;;;;;;;;5063903;28;20418;-72
2021/04/01 08:15:50;;;;;;;83.70;80.00;;;;;;;;;;5066658;28;20410;-71
2021/04/01 08:20:52;;;;;;;38.50;36.60;;;;;;;;;;5063472;28;20427;-71
2021/04/01 08:23:27;;;;;;;;;;;;;;;;;;5065807;28;19968;-70
2021/04/01 08:26:18;;;;;;;;;;;;;;;;;;5048644;28;19963;-71
2021/04/01 08:34:17;;;;;;;;;;;;;;;;;;5072725;28;19943;-71
2021/04/01 08:36:43;;;;;;;;;;;;;;;;;;5071829;28;19934;-71
2021/04/01 08:39:09;;;;;;;;;;;;;;;;;;5068835;28;19984;-71
2021/04/01 08:41:38;;;;;;;;;;;;;;;;;;5039463;28;20043;-71
2021/04/01 08:44:04;;;;;;;;;;;;;;;;;;5058908;28;20317;-70
2021/04/01 08:46:30;;;;;;;;;;;;;;;;;;5057907;28;19936;-71
2021/04/01 08:48:56;;;;;;;;;;;;;;;;;;5070269;28;20406;-71
2021/04/01 08:51:22;;;;;;;;;;;;;;;;;;5091854;22;20931;-70
2021/04/01 08:53:48;;;;;;;;;;;;;;;;;;5043770;28;19964;-70
2021/04/01 08:56:23;;;;;;;;;;;;;;;;;;5042333;28;20029;-71
2021/04/01 08:58:49;;;;;;;;;;;;;;;;;;5046992;28;19926;-70
2021/04/01 09:01:15;;;;;;;;;;;;;;;;;;5031224;28;20341;-71
2021/04/01 09:03:41;;;;;;;;;;;;;;;;;;5051352;28;20265;-71
2021/04/01 09:06:07;;;;;;;;;;;;;;;;;;5060765;28;19932;-70
2021/04/01 09:08:35;;;;;;;;;;;;;;;;;;5053527;28;20437;-75
2021/04/01 09:11:01;;;;;;;;;;;;;;;;;;5046721;28;19944;-69
2021/04/01 09:13:30;;;;;;;;;;;;;;;;;;5045312;28;19955;-67
2021/04/01 09:16:02;;;;;;;;;;;;;;;;;;5048238;28;20340;-67
2021/04/01 09:18:28;;;;;;;;;;;;;;;;;;5050743;28;20003;-67
2021/04/01 09:20:54;;;;;;;;;;;;;;;;;;5048569;28;20039;-68
2021/04/01 09:23:21;;;;;;;11.55;6.28;;;;;;;;;;5031823;28;20947;-66
2021/04/01 09:25:49;;;;;;;8.40;4.27;;;;;;;;;;5031920;28;20172;-69
2021/04/01 09:28:15;;;;;;;5.63;4.60;;;;;;;;;;5045275;28;20989;-68
2021/04/01 09:30:42;;;;;;;9.00;3.00;;;;;;;;;;5047909;28;20472;-68
2021/04/01 09:33:23;;;;;;;9.10;6.27;;;;;;;;;;5047285;28;20780;-67
2021/04/01 09:35:49;;;;;;;3.47;2.07;;;;;;;;;;5045168;28;20908;-68
2021/04/01 09:38:15;;;;;;;9.37;3.60;;;;;;;;;;5049137;28;20471;-70
2021/04/01 09:40:42;;;;;;;7.30;2.57;;;;;;;;;;5049414;28;20418;-69
2021/04/01 09:43:09;;;;;;;2.63;2.30;;;;;;;;;;5047010;28;20776;-69
2021/04/01 09:45:35;;;;;;;3.30;2.10;;;;;;;;;;5047102;28;20472;-69
2021/04/01 09:48:02;;;;;;;5.07;4.00;;;;;;;;;;5044625;28;20411;-69
2021/04/01 09:50:59;;;;;;;3.53;2.47;;;;;;;;;;5045446;28;20396;-68
2021/04/01 09:53:25;;;;;;;1.97;1.60;;;;;;;;;;5045823;28;20520;-70
2021/04/01 09:55:52;;;;;;;8.03;3.00;;;;;;;;;;5031971;28;20434;-70
2021/04/01 09:58:22;;;;;;;3.27;1.83;;;;;;;;;;5049484;28;20488;-69
2021/04/01 10:01:26;;;;;;;6.93;3.30;;;;;;;;;;5041864;28;20405;-69
2021/04/01 10:03:41;;;;;;;2.87;2.03;;;;;;;;;;5044654;28;20448;-69
2021/04/01 10:06:07;;;;;;;3.80;2.57;;;;;;;;;;5044261;28;20426;-70
2021/04/01 10:08:37;;;;;;;7.97;2.87;;;;;;;;;;5035457;28;20451;-69
2021/04/01 10:11:09;;;;;;;2.10;1.77;;;;;;;;;;5049175;28;20382;-67
2021/04/01 10:13:35;;;;;;;6.97;3.20;;;;;;;;;;5049030;28;20390;-68
2021/04/01 10:16:01;;;;;;;4.13;2.70;;;;;;;;;;5046169;28;20442;-68
2021/04/01 10:18:30;;;;;;;1.90;1.07;;;;;;;;;;5050129;28;20460;-69
2021/04/01 10:20:59;;;;;;;4.27;3.10;;;;;;;;;;5049531;28;20524;-68
2021/04/01 10:23:25;;;;;;;1.07;0.87;;;;;;;;;;5048933;28;20461;-69
2021/04/01 10:26:01;;;;;;;2.23;1.73;;;;;;;;;;5049809;28;20411;-70
2021/04/01 10:28:40;;;;;;;5.33;1.07;;;;;;;;;;5050391;28;20533;-68
2021/04/01 10:31:10;;;;;;;0.80;0.70;;;;;;;;;;5046170;28;20542;-68
2021/04/01 10:33:53;;;;;;;1.53;1.43;;;;;;;;;;5047883;28;20459;-67
2021/04/01 10:36:25;;;;;;;1.60;1.07;;;;;;;;;;5035422;28;20414;-69
2021/04/01 10:38:54;;;;;;;1.17;1.07;;;;;;;;;;5050252;28;20394;-68
2021/04/01 10:41:21;;;;;;;1.30;1.03;;;;;;;;;;5047664;28;20437;-69
2021/04/01 10:43:53;;;;;;;1.50;1.40;;;;;;;;;;5045667;28;20484;-69
2021/04/01 10:46:20;;;;;;;12.00;1.33;;;;;;;;;;5043469;28;20442;-68
2021/04/01 10:48:48;;;;;;;2.47;1.23;;;;;;;;;;5047012;28;20580;-72
2021/04/01 10:51:15;;;;;;;4.27;1.53;;;;;;;;;;5047945;28;20415;-66
2021/04/01 10:53:42;;;;;;;4.27;1.60;;;;;;;;;;5045759;28;20395;-68
2021/04/01 10:56:09;;;;;;;4.23;1.03;;;;;;;;;;5038722;28;21066;-69
2021/04/01 10:58:35;;;;;;;2.00;1.90;;;;;;;;;;5037174;28;20488;-68
2021/04/01 11:01:02;;;;;;;1.53;1.23;;;;;;;;;;5039953;28;20767;-68
2021/04/01 11:03:30;;;;;;;6.00;1.40;;;;;;;;;;5045979;28;20476;-68
2021/04/01 11:05:57;;;;;;;1.20;1.03;;;;;;;;;;5040459;28;20427;-67
2021/04/01 11:08:24;;;;;;;3.53;3.10;;;;;;;;;;5020598;28;20572;-67
2021/04/01 11:11:00;;;;;;;1.17;0.70;;;;;;;;;;5051053;28;20468;-70
2021/04/01 11:13:34;;;;;;;1.40;0.90;;;;;;;;;;5045149;28;20419;-68
2021/04/01 11:16:02;;;;;;;1.17;1.03;;;;;;;;;;5043357;28;20415;-67
2021/04/01 11:18:28;;;;;;;0.80;0.77;;;;;;;;;;5027012;28;20415;-70
2021/04/01 11:20:55;;;;;;;2.70;0.80;;;;;;;;;;5040674;28;20414;-72
2021/04/01 11:23:25;;;;;;;1.17;0.90;;;;;;;;;;5043579;28;20449;-70
2021/04/01 11:25:52;;;;;;;0.70;0.50;;;;;;;;;;5048762;28;20556;-71
2021/04/01 11:28:18;;;;;;;1.33;0.90;;;;;;;;;;5054163;28;20454;-70
2021/04/01 11:30:49;;;;;;;29.63;14.43;;;;;;;;;;5050874;28;20418;-69
2021/04/01 11:33:17;;;;;;;0.80;0.50;;;;;;;;;;5051833;28;20452;-67
2021/04/01 11:35:44;;;;;;;0.80;0.60;;;;;;;;;;5046205;28;20419;-72
2021/04/01 11:38:17;;;;;;;0.70;0.40;;;;;;;;;;5051480;28;20419;-70
2021/04/01 11:40:52;;;;;;;1.57;0.70;;;;;;;;;;5044654;28;20758;-68
2021/04/01 11:43:24;;;;;;;0.80;0.50;;;;;;;;;;5046088;28;20991;-69
2021/04/01 11:45:50;;;;;;;0.70;0.43;;;;;;;;;;5042705;28;20419;-71
2021/04/01 11:48:18;;;;;;;33.50;21.67;;;;;;;;;;5051725;28;20442;-69
2021/04/01 11:50:45;;;;;;;9.10;8.33;;;;;;;;;;5052144;28;20422;-69
2021/04/01 11:53:11;;;;;;;0.80;0.70;;;;;;;;;;5052177;28;20442;-70
2021/04/01 11:55:47;;;;;;;1.77;1.23;;;;;;;;;;5052597;28;20821;-67
2021/04/01 11:58:14;;;;;;;0.93;0.80;;;;;;;;;;5034089;28;20454;-68
2021/04/01 12:00:40;;;;;;;1.00;0.77;;;;;;;;;;5051683;28;20985;-70
2021/04/01 12:03:24;;;;;;;5.73;1.00;;;;;;;;;;5051586;28;20938;-67
2021/04/01 12:05:51;;;;;;;3.43;1.33;;;;;;;;;;5029137;28;20415;-71
2021/04/01 12:08:18;;;;;;;1.10;0.60;;;;;;;;;;5033421;28;20468;-71
2021/04/01 12:10:53;;;;;;;2.20;0.63;;;;;;;;;;5051266;28;21180;-68
2021/04/01 12:13:20;;;;;;;0.80;0.60;;;;;;;;;;5050502;28;20524;-71
2021/04/01 12:15:46;;;;;;;0.80;0.60;;;;;;;;;;5051955;28;20502;-69
2021/04/01 12:18:12;;;;;;;1.00;0.83;;;;;;;;;;5033916;28;20460;-68
2021/04/01 12:20:38;;;;;;;2.47;1.33;;;;;;;;;;5048352;28;20427;-69
2021/04/01 12:23:24;;;;;;;1.10;0.67;;;;;;;;;;5044849;28;20443;-69
2021/04/01 12:25:52;;;;;;;0.70;0.50;;;;;;;;;;5046499;28;20479;-68
2021/04/01 12:28:18;;;;;;;1.33;0.97;;;;;;;;;;5050917;28;20399;-71
2021/04/01 12:30:48;;;;;;;1.57;1.00;;;;;;;;;;5049638;28;20485;-71
2021/04/01 12:33:17;;;;;;;0.80;0.60;;;;;;;;;;5038624;28;21022;-70
2021/04/01 12:35:53;;;;;;;2.23;0.70;;;;;;;;;;5046105;28;20418;-69
2021/04/01 12:38:28;;;;;;;0.80;0.53;;;;;;;;;;5045865;28;20478;-70
2021/04/01 12:40:54;;;;;;;1.00;0.70;;;;;;;;;;5042089;28;20417;-68
2021/04/01 12:43:20;;;;;;;1.40;0.80;;;;;;;;;;5050246;28;20489;-70
2021/04/01 12:45:53;;;;;;;0.70;0.47;;;;;;;;;;5048869;28;20411;-69
2021/04/01 12:48:19;;;;;;;0.70;0.50;;;;;;;;;;5048472;28;20411;-69
2021/04/01 12:50:49;;;;;;;0.80;0.60;;;;;;;;;;5032767;28;20415;-69
2021/04/01 12:53:17;;;;;;;0.77;0.50;;;;;;;;;;5032857;28;20446;-70
2021/04/01 12:55:55;;;;;;;0.70;0.50;;;;;;;;;;5038129;28;20407;-71
2021/04/01 12:58:25;;;;;;;0.70;0.50;;;;;;;;;;5050228;28;20450;-72
2021/04/01 13:00:56;;;;;;;0.80;0.60;;;;;;;;;;5049560;28;20419;-70
2021/04/01 13:03:22;;;;;;;0.90;0.50;;;;;;;;;;5042684;28;20434;-70
2021/04/01 13:05:53;;;;;;;4.93;1.00;;;;;;;;;;5047131;28;20418;-69
2021/04/01 13:10:45;;;;;;;0.80;0.60;;;;;;;;;;5044888;28;20825;-72
2021/04/01 13:13:12;;;;;;;1.07;0.67;;;;;;;;;;5048665;28;20441;-74
2021/04/01 13:15:38;;;;;;;0.87;0.73;;;;;;;;;;5050709;28;20426;-70
2021/04/01 13:18:05;;;;;;;0.80;0.60;;;;;;;;;;5030590;28;20422;-69
2021/04/01 13:20:31;;;;;;;0.80;0.50;;;;;;;;;;5046347;28;20735;-69
2021/04/01 13:23:11;;;;;;;0.70;0.40;;;;;;;;;;5030911;28;21019;-70
2021/04/01 13:25:37;;;;;;;0.90;0.50;;;;;;;;;;5032454;28;20406;-69
2021/04/01 13:28:04;;;;;;;0.70;0.57;;;;;;;;;;5029399;28;20431;-69
2021/04/01 13:30:31;;;;;;;0.70;0.50;;;;;;;;;;5034850;28;20416;-69
2021/04/01 13:33:08;;;;;;;0.80;0.60;;;;;;;;;;5045762;28;20430;-71
2021/04/01 13:35:47;;;;;;;0.80;0.63;;;;;;;;;;5037424;28;20409;-69
2021/04/01 13:38:19;;;;;;;0.80;0.67;;;;;;;;;;5043615;28;20465;-70
2021/04/01 13:40:46;;;;;;;0.70;0.50;;;;;;;;;;5049219;28;20415;-70
2021/04/01 13:43:14;;;;;;;0.80;0.60;;;;;;;;;;5050026;28;20433;-70
2021/04/01 13:45:41;;;;;;;0.70;0.50;;;;;;;;;;5040389;28;20497;-67
2021/04/01 13:48:13;;;;;;;0.70;0.40;;;;;;;;;;5047204;28;20411;-71
2021/04/01 13:50:45;;;;;;;0.90;0.50;;;;;;;;;;5044269;28;20502;-70
2021/04/01 13:53:31;;;;;;;0.70;0.53;;;;;;;;;;5048409;28;20519;-71
2021/04/01 13:56:08;;;;;;;0.70;0.40;;;;;;;;;;5046030;28;20413;-69
2021/04/01 14:09:25;;;;;;;1.20;1.10;;;;;;;;;;5050499;28;20445;-68
2021/04/01 14:11:51;;;;;;;1.10;1.00;;;;;;;;;;5049948;28;20447;-68
2021/04/01 14:14:17;;;;;;;0.70;0.43;;;;;;;;;;5032455;28;20414;-68
2021/04/01 14:16:43;;;;;;;0.70;0.50;;;;;;;;;;5056376;28;20486;-69
2021/04/01 14:19:10;;;;;;;0.80;0.60;;;;;;;;;;5035557;28;20486;-69
2021/04/01 14:21:36;;;;;;;0.70;0.50;;;;;;;;;;5049469;28;20430;-70
2021/04/01 14:24:07;;;;;;;0.70;0.47;;;;;;;;;;5049678;28;20410;-70
2021/04/01 14:26:38;;;;;;;0.70;0.50;;;;;;;;;;5044538;28;20426;-70
2021/04/01 14:29:04;;;;;;;1.20;0.77;;;;;;;;;;5046798;28;20423;-70
2021/04/01 14:31:33;;;;;;;0.80;0.80;;;;;;;;;;5039548;28;20922;-70
2021/04/01 14:33:59;;;;;;;0.70;0.40;;;;;;;;;;5041931;28;20434;-69
2021/04/01 14:36:25;;;;;;;1.90;0.70;;;;;;;;;;5049957;28;20413;-68
2021/04/01 14:38:51;;;;;;;0.70;0.50;;;;;;;;;;5049987;28;20539;-69
2021/04/01 14:44:15;;;;;;;0.73;0.53;;;;;;;;;;5037784;28;20426;-69
2021/04/01 14:46:42;;;;;;;0.70;0.50;;;;;;;;;;5045465;28;20828;-70
2021/04/01 14:49:08;;;;;;;1.57;0.73;;;;;;;;;;5046478;28;20413;-69
2021/04/01 14:51:34;;;;;;;0.70;0.50;;;;;;;;;;5048888;28;20522;-69
2021/04/01 14:54:12;;;;;;;0.70;0.50;;;;;;;;;;5050122;28;20452;-68
2021/04/01 14:56:41;;;;;;;0.70;0.50;;;;;;;;;;5051654;28;20959;-70
2021/04/01 14:59:20;;;;;;;0.80;0.50;;;;;;;;;;5051651;28;20788;-70
2021/04/01 15:01:47;;;;;;;0.70;0.50;;;;;;;;;;5053295;28;20797;-70
2021/04/01 15:04:14;;;;;;;0.90;0.50;;;;;;;;;;5034727;28;20960;-70
2021/04/01 15:06:42;;;;;;;0.70;0.50;;;;;;;;;;5045900;28;20415;-69
2021/04/01 15:09:08;;;;;;;0.80;0.50;;;;;;;;;;5050615;28;20410;-69
2021/04/01 15:11:35;;;;;;;2.40;1.00;;;;;;;;;;5048519;28;20516;-69
2021/04/01 15:14:02;;;;;;;1.10;0.97;;;;;;;;;;5051470;28;20496;-70
2021/04/01 15:16:28;;;;;;;0.70;0.50;;;;;;;;;;5046934;28;20422;-68
2021/04/01 15:18:55;;;;;;;0.70;0.40;;;;;;;;;;5046566;28;20585;-70
2021/04/01 15:21:22;;;;;;;0.70;0.50;;;;;;;;;;5048649;28;20503;-69
2021/04/01 15:23:48;;;;;;;3.37;1.93;;;;;;;;;;5032619;28;20451;-70
2021/04/01 15:26:14;;;;;;;1.13;0.70;;;;;;;;;;5049924;28;20466;-70
2021/04/01 15:28:40;;;;;;;0.70;0.40;;;;;;;;;;5052572;28;20406;-69
2021/04/01 15:31:06;;;;;;;0.77;0.60;;;;;;;;;;5052466;28;20761;-70
2021/04/01 15:33:32;;;;;;;0.70;0.50;;;;;;;;;;5046216;28;20408;-71
2021/04/01 15:35:58;;;;;;;0.70;0.50;;;;;;;;;;5043033;28;20431;-69
2021/04/01 15:38:24;;;;;;;0.80;0.50;;;;;;;;;;5018758;28;20457;-69
2021/04/01 15:40:50;;;;;;;0.70;0.40;;;;;;;;;;5052616;28;20414;-69
2021/04/01 15:43:16;;;;;;;3.53;1.50;;;;;;;;;;5050929;28;20939;-71
2021/04/01 15:45:42;;;;;;;0.80;0.50;;;;;;;;;;5051416;28;20402;-71
2021/04/01 15:48:08;;;;;;;0.70;0.40;;;;;;;;;;5033480;28;20435;-71
2021/04/01 15:50:35;;;;;;;7.30;6.40;;;;;;;;;;5052249;28;20411;-71
2021/04/01 15:53:01;;;;;;;0.70;0.40;;;;;;;;;;5064379;22;20536;-75
2021/04/01 15:55:27;;;;;;;0.70;0.40;;;;;;;;;;5049389;28;20982;-75
2021/04/01 15:57:53;;;;;;;24.90;22.73;;;;;;;;;;5038938;28;20504;-75
2021/04/01 16:00:19;;;;;;;0.90;0.73;;;;;;;;;;5008789;28;20478;-74
2021/04/01 16:02:48;;;;;;;2.83;2.60;;;;;;;;;;5031729;28;20410;-74
2021/04/01 16:05:14;;;;;;;0.97;0.70;;;;;;;;;;5042461;28;20422;-74
2021/04/01 16:07:40;;;;;;;1.27;0.60;;;;;;;;;;5020740;28;21027;-75
2021/04/01 16:10:07;;;;;;;147.47;126.80;;;;;;;;;;5017067;28;20938;-76
2021/04/01 16:12:33;;;;;;;2.60;2.10;;;;;;;;;;5017223;28;20443;-75
2021/04/01 16:14:59;;;;;;;72.27;65.53;;;;;;;;;;5018851;28;20444;-75
2021/04/01 16:17:25;;;;;;;27.50;26.07;;;;;;;;;;5034102;28;20447;-75
2021/04/01 16:19:51;;;;;;;0.70;0.40;;;;;;;;;;5024372;28;20511;-73
2021/04/01 16:22:19;;;;;;;565.77;322.70;;;;;;;;;;5046184;28;20403;-74
2021/04/01 16:24:46;;;;;;;253.33;199.67;;;;;;;;;;5026138;28;20404;-74
2021/04/01 16:27:12;;;;;;;212.37;178.33;;;;;;;;;;5035596;28;20451;-76
2021/04/01 16:29:39;;;;;;;0.70;0.50;;;;;;;;;;5006260;28;20416;-74